Terminal Aerodrome Forecast
Issued by NWS New Orleans/Baton Rouge, LA

Home | Current Version | Previous Version | Text Only | Print | Product List | Glossary On
Versions: 1 2 3 4 5 6 7 8 9 10 11 12 13 14 15 16 17 18 19 20 21 22 23 24
000
FTUS44 KLIX 232327
TAFNEW
TAF
KNEW 232327Z 2400/2424 12011KT P6SM FEW030 SCT250
     FM241500 14017KT P6SM BKN025
     FM241700 15017KT P6SM VCTS BKN035CB=

USA.gov is the U.S. government's official web portal to all federal, state and local government web resources and services.